sensor_id;sensor_type;location;lat;lon;timestamp;pressure;altitude;pressure_sealevel;temperature;humidity
36514;BME280;66331;46.796;9.824;2023-02-23T00:01:13;84153.13;;;0.86;40.59
36514;BME280;66331;46.796;9.824;2023-02-23T00:03:41;84154.42;;;0.43;41.91
36514;BME280;66331;46.796;9.824;2023-02-23T00:06:08;84153.88;;;0.89;41.18
36514;BME280;66331;46.796;9.824;2023-02-23T00:08:37;84153.60;;;0.81;40.71
36514;BME280;66331;46.796;9.824;2023-02-23T00:11:07;84156.54;;;1.36;40.18
36514;BME280;66331;46.796;9.824;2023-02-23T00:13:36;84158.83;;;0.68;40.72
36514;BME280;66331;46.796;9.824;2023-02-23T00:16:05;84159.69;;;1.10;39.77
36514;BME280;66331;46.796;9.824;2023-02-23T00:18:33;84158.97;;;0.27;41.45
36514;BME280;66331;46.796;9.824;2023-02-23T00:21:01;84163.08;;;0.64;40.61
36514;BME280;66331;46.796;9.824;2023-02-23T00:23:27;84160.02;;;0.34;40.76
36514;BME280;66331;46.796;9.824;2023-02-23T00:25:54;84161.87;;;1.06;40.81
36514;BME280;66331;46.796;9.824;2023-02-23T00:28:22;84160.27;;;1.37;39.22
36514;BME280;66331;46.796;9.824;2023-02-23T00:30:48;84160.04;;;1.71;38.77
36514;BME280;66331;46.796;9.824;2023-02-23T00:33:16;84161.84;;;1.50;39.25
36514;BME280;66331;46.796;9.824;2023-02-23T00:35:43;84161.53;;;-0.82;44.20
36514;BME280;66331;46.796;9.824;2023-02-23T00:38:10;84157.61;;;0.09;42.96
36514;BME280;66331;46.796;9.824;2023-02-23T00:40:38;84160.74;;;0.72;42.07
36514;BME280;66331;46.796;9.824;2023-02-23T00:43:05;84160.44;;;0.68;42.99
36514;BME280;66331;46.796;9.824;2023-02-23T00:45:33;84161.80;;;0.20;42.81
36514;BME280;66331;46.796;9.824;2023-02-23T00:48:00;84162.47;;;0.90;41.38
36514;BME280;66331;46.796;9.824;2023-02-23T00:50:27;84161.74;;;0.84;40.90
36514;BME280;66331;46.796;9.824;2023-02-23T00:52:55;84160.85;;;0.90;40.86
36514;BME280;66331;46.796;9.824;2023-02-23T00:55:22;84158.86;;;1.38;39.77
36514;BME280;66331;46.796;9.824;2023-02-23T00:57:49;84157.41;;;1.43;39.70
36514;BME280;66331;46.796;9.824;2023-02-23T01:00:17;84156.85;;;0.92;41.54
36514;BME280;66331;46.796;9.824;2023-02-23T01:02:44;84154.12;;;0.56;41.80
36514;BME280;66331;46.796;9.824;2023-02-23T01:05:12;84149.40;;;0.53;42.93
36514;BME280;66331;46.796;9.824;2023-02-23T01:07:40;84149.45;;;0.04;44.29
36514;BME280;66331;46.796;9.824;2023-02-23T01:10:08;84149.63;;;0.60;43.55
36514;BME280;66331;46.796;9.824;2023-02-23T01:12:36;84152.63;;;0.69;42.50
36514;BME280;66331;46.796;9.824;2023-02-23T01:15:04;84148.46;;;0.40;42.96
36514;BME280;66331;46.796;9.824;2023-02-23T01:17:32;84148.69;;;0.82;41.27
36514;BME280;66331;46.796;9.824;2023-02-23T01:20:00;84148.65;;;0.95;41.35
36514;BME280;66331;46.796;9.824;2023-02-23T01:22:29;84143.25;;;1.48;40.04
36514;BME280;66331;46.796;9.824;2023-02-23T01:24:57;84146.95;;;1.03;40.97
36514;BME280;66331;46.796;9.824;2023-02-23T01:27:26;84142.52;;;0.84;40.96
36514;BME280;66331;46.796;9.824;2023-02-23T01:29:53;84142.00;;;1.02;40.45
36514;BME280;66331;46.796;9.824;2023-02-23T01:32:22;84140.09;;;0.75;40.85
36514;BME280;66331;46.796;9.824;2023-02-23T01:34:49;84139.80;;;0.30;41.24
36514;BME280;66331;46.796;9.824;2023-02-23T01:37:18;84139.06;;;1.05;40.58
36514;BME280;66331;46.796;9.824;2023-02-23T01:39:46;84133.80;;;1.48;39.77
36514;BME280;66331;46.796;9.824;2023-02-23T01:42:19;84132.86;;;0.54;41.91
36514;BME280;66331;46.796;9.824;2023-02-23T01:45:25;84130.16;;;1.11;41.18
36514;BME280;66331;46.796;9.824;2023-02-23T01:47:56;84127.41;;;1.23;40.58
36514;BME280;66331;46.796;9.824;2023-02-23T01:50:27;84121.32;;;1.68;39.13
36514;BME280;66331;46.796;9.824;2023-02-23T01:52:56;84120.49;;;0.77;40.08
36514;BME280;66331;46.796;9.824;2023-02-23T01:55:25;84119.54;;;2.21;39.81
36514;BME280;66331;46.796;9.824;2023-02-23T01:57:58;84121.54;;;1.14;41.63
36514;BME280;66331;46.796;9.824;2023-02-23T02:00:28;84116.83;;;0.15;43.25
36514;BME280;66331;46.796;9.824;2023-02-23T02:02:59;84113.92;;;0.17;43.08
36514;BME280;66331;46.796;9.824;2023-02-23T02:05:29;84114.42;;;0.78;41.95
36514;BME280;66331;46.796;9.824;2023-02-23T02:07:58;84110.50;;;0.78;41.67
36514;BME280;66331;46.796;9.824;2023-02-23T02:10:27;84105.98;;;1.26;40.91
36514;BME280;66331;46.796;9.824;2023-02-23T02:12:55;84104.26;;;0.91;40.85
36514;BME280;66331;46.796;9.824;2023-02-23T02:15:30;84100.86;;;2.04;39.72
36514;BME280;66331;46.796;9.824;2023-02-23T02:18:07;84101.66;;;-0.38;44.28
36514;BME280;66331;46.796;9.824;2023-02-23T02:20:59;84100.08;;;-0.31;44.30
36514;BME280;66331;46.796;9.824;2023-02-23T02:25:56;84097.41;;;1.36;42.11
36514;BME280;66331;46.796;9.824;2023-02-23T02:31:01;84092.88;;;1.23;42.47
36514;BME280;66331;46.796;9.824;2023-02-23T02:33:51;84085.01;;;1.79;39.97
36514;BME280;66331;46.796;9.824;2023-02-23T02:36:46;84081.94;;;0.74;40.71
36514;BME280;66331;46.796;9.824;2023-02-23T02:39:22;84081.43;;;1.15;41.43
36514;BME280;66331;46.796;9.824;2023-02-23T02:41:58;84079.63;;;1.45;40.60
36514;BME280;66331;46.796;9.824;2023-02-23T02:44:39;84081.31;;;1.62;40.57
36514;BME280;66331;46.796;9.824;2023-02-23T02:47:20;84084.70;;;0.70;42.31
36514;BME280;66331;46.796;9.824;2023-02-23T02:49:53;84080.98;;;1.07;40.70
36514;BME280;66331;46.796;9.824;2023-02-23T02:52:27;84078.73;;;0.60;41.32
36514;BME280;66331;46.796;9.824;2023-02-23T02:54:59;84079.08;;;1.43;41.25
36514;BME280;66331;46.796;9.824;2023-02-23T02:57:30;84078.68;;;1.96;40.39
36514;BME280;66331;46.796;9.824;2023-02-23T02:59:59;84079.49;;;0.79;41.81
36514;BME280;66331;46.796;9.824;2023-02-23T03:02:28;84081.69;;;-0.07;43.73
36514;BME280;66331;46.796;9.824;2023-02-23T03:04:58;84079.93;;;-0.95;46.03
36514;BME280;66331;46.796;9.824;2023-02-23T03:07:30;84080.47;;;-0.92;45.60
36514;BME280;66331;46.796;9.824;2023-02-23T03:10:05;84082.09;;;-0.28;45.79
36514;BME280;66331;46.796;9.824;2023-02-23T03:12:48;84081.11;;;-0.17;45.58
36514;BME280;66331;46.796;9.824;2023-02-23T03:15:34;84081.07;;;0.37;43.60
36514;BME280;66331;46.796;9.824;2023-02-23T03:18:14;84079.93;;;0.84;43.45
36514;BME280;66331;46.796;9.824;2023-02-23T03:20:49;84082.51;;;0.27;44.39
36514;BME280;66331;46.796;9.824;2023-02-23T03:23:22;84078.68;;;1.60;41.74
36514;BME280;66331;46.796;9.824;2023-02-23T03:26:02;84075.81;;;1.36;42.82
36514;BME280;66331;46.796;9.824;2023-02-23T03:28:36;84080.74;;;0.88;43.46
36514;BME280;66331;46.796;9.824;2023-02-23T03:31:15;84079.72;;;1.18;43.59
36514;BME280;66331;46.796;9.824;2023-02-23T03:33:52;84078.81;;;1.30;42.54
36514;BME280;66331;46.796;9.824;2023-02-23T03:36:26;84081.26;;;1.67;41.72
36514;BME280;66331;46.796;9.824;2023-02-23T03:38:59;84079.45;;;2.27;41.00
36514;BME280;66331;46.796;9.824;2023-02-23T03:41:30;84083.65;;;1.31;42.64
36514;BME280;66331;46.796;9.824;2023-02-23T03:44:05;84088.03;;;0.02;45.54
36514;BME280;66331;46.796;9.824;2023-02-23T03:46:37;84089.98;;;-0.54;47.20
36514;BME280;66331;46.796;9.824;2023-02-23T03:49:08;84091.75;;;0.38;46.04
36514;BME280;66331;46.796;9.824;2023-02-23T03:51:39;84095.11;;;0.25;45.59
36514;BME280;66331;46.796;9.824;2023-02-23T03:54:13;84091.84;;;0.86;44.32
36514;BME280;66331;46.796;9.824;2023-02-23T03:56:46;84091.95;;;-0.32;46.49
36514;BME280;66331;46.796;9.824;2023-02-23T03:59:19;84092.73;;;1.11;44.14
36514;BME280;66331;46.796;9.824;2023-02-23T04:01:51;84094.89;;;0.72;44.17
36514;BME280;66331;46.796;9.824;2023-02-23T04:04:21;84094.88;;;0.91;44.18
36514;BME280;66331;46.796;9.824;2023-02-23T04:06:52;84093.14;;;1.86;42.19
36514;BME280;66331;46.796;9.824;2023-02-23T04:09:22;84098.00;;;2.35;41.47
36514;BME280;66331;46.796;9.824;2023-02-23T04:11:53;84096.97;;;1.85;41.79
36514;BME280;66331;46.796;9.824;2023-02-23T04:14:26;84095.51;;;2.22;40.91
36514;BME280;66331;46.796;9.824;2023-02-23T04:16:56;84098.72;;;2.21;41.49
36514;BME280;66331;46.796;9.824;2023-02-23T04:19:26;84098.07;;;-0.09;45.17
36514;BME280;66331;46.796;9.824;2023-02-23T04:21:53;84098.65;;;-0.32;47.48
36514;BME280;66331;46.796;9.824;2023-02-23T04:24:21;84099.51;;;-0.20;48.58
36514;BME280;66331;46.796;9.824;2023-02-23T04:26:48;84099.93;;;0.47;46.77
36514;BME280;66331;46.796;9.824;2023-02-23T04:29:15;84100.62;;;0.53;46.46
36514;BME280;66331;46.796;9.824;2023-02-23T04:31:42;84101.89;;;0.07;46.82
36514;BME280;66331;46.796;9.824;2023-02-23T04:34:10;84100.88;;;-0.05;47.16
36514;BME280;66331;46.796;9.824;2023-02-23T04:36:36;84100.72;;;1.13;45.08
36514;BME280;66331;46.796;9.824;2023-02-23T04:39:04;84099.14;;;1.18;44.42
36514;BME280;66331;46.796;9.824;2023-02-23T04:41:31;84098.58;;;1.20;45.31
36514;BME280;66331;46.796;9.824;2023-02-23T04:43:58;84097.81;;;1.34;44.68
36514;BME280;66331;46.796;9.824;2023-02-23T04:46:26;84098.22;;;1.56;44.34
36514;BME280;66331;46.796;9.824;2023-02-23T04:48:53;84101.46;;;1.16;45.21
36514;BME280;66331;46.796;9.824;2023-02-23T04:51:21;84100.94;;;1.57;44.42
36514;BME280;66331;46.796;9.824;2023-02-23T04:53:48;84101.72;;;1.03;44.67
36514;BME280;66331;46.796;9.824;2023-02-23T04:56:15;84102.29;;;1.16;45.14
36514;BME280;66331;46.796;9.824;2023-02-23T04:58:42;84100.52;;;1.57;43.48
36514;BME280;66331;46.796;9.824;2023-02-23T05:01:10;84103.03;;;1.15;44.90
36514;BME280;66331;46.796;9.824;2023-02-23T05:03:37;84105.41;;;-0.39;47.38
36514;BME280;66331;46.796;9.824;2023-02-23T05:06:04;84104.71;;;0.64;45.22
36514;BME280;66331;46.796;9.824;2023-02-23T05:08:31;84104.28;;;0.80;45.93
36514;BME280;66331;46.796;9.824;2023-02-23T05:10:59;84105.51;;;0.70;45.41
36514;BME280;66331;46.796;9.824;2023-02-23T05:13:26;84104.18;;;0.71;45.36
36514;BME280;66331;46.796;9.824;2023-02-23T05:15:55;84102.13;;;1.69;45.30
36514;BME280;66331;46.796;9.824;2023-02-23T05:18:22;84103.44;;;1.86;44.48
36514;BME280;66331;46.796;9.824;2023-02-23T05:20:50;84102.24;;;1.57;45.49
36514;BME280;66331;46.796;9.824;2023-02-23T05:23:18;84103.96;;;0.81;47.22
36514;BME280;66331;46.796;9.824;2023-02-23T05:25:45;84101.71;;;1.47;46.03
36514;BME280;66331;46.796;9.824;2023-02-23T05:28:12;84099.13;;;1.14;46.85
36514;BME280;66331;46.796;9.824;2023-02-23T05:30:39;84100.48;;;0.66;46.99
36514;BME280;66331;46.796;9.824;2023-02-23T05:33:06;84100.06;;;0.96;46.25
36514;BME280;66331;46.796;9.824;2023-02-23T05:35:33;84100.09;;;1.19;46.91
36514;BME280;66331;46.796;9.824;2023-02-23T05:38:00;84102.66;;;1.08;46.66
36514;BME280;66331;46.796;9.824;2023-02-23T05:40:27;84098.46;;;1.32;45.79
36514;BME280;66331;46.796;9.824;2023-02-23T05:42:58;84100.39;;;1.27;46.45
36514;BME280;66331;46.796;9.824;2023-02-23T05:45:25;84102.48;;;0.95;46.56
36514;BME280;66331;46.796;9.824;2023-02-23T05:47:52;84101.89;;;1.43;46.51
36514;BME280;66331;46.796;9.824;2023-02-23T05:50:19;84103.27;;;1.12;46.96
36514;BME280;66331;46.796;9.824;2023-02-23T05:52:46;84104.79;;;1.08;46.67
36514;BME280;66331;46.796;9.824;2023-02-23T05:55:13;84107.02;;;0.95;46.82
36514;BME280;66331;46.796;9.824;2023-02-23T05:57:40;84107.03;;;1.05;46.83
36514;BME280;66331;46.796;9.824;2023-02-23T06:00:09;84109.24;;;0.93;46.96
36514;BME280;66331;46.796;9.824;2023-02-23T06:02:36;84114.47;;;0.54;47.60
36514;BME280;66331;46.796;9.824;2023-02-23T06:05:03;84113.65;;;0.88;46.84
36514;BME280;66331;46.796;9.824;2023-02-23T06:07:31;84113.00;;;1.15;46.64
36514;BME280;66331;46.796;9.824;2023-02-23T06:09:58;84118.60;;;1.05;47.09
36514;BME280;66331;46.796;9.824;2023-02-23T06:12:25;84118.29;;;0.75;47.36
36514;BME280;66331;46.796;9.824;2023-02-23T06:14:52;84122.96;;;0.31;49.41
36514;BME280;66331;46.796;9.824;2023-02-23T06:17:19;84121.52;;;1.86;46.43
36514;BME280;66331;46.796;9.824;2023-02-23T06:19:47;84120.36;;;1.37;47.11
36514;BME280;66331;46.796;9.824;2023-02-23T06:22:14;84125.96;;;0.67;48.56
36514;BME280;66331;46.796;9.824;2023-02-23T06:24:41;84126.16;;;1.25;47.08
36514;BME280;66331;46.796;9.824;2023-02-23T06:27:08;84133.30;;;0.78;48.44
36514;BME280;66331;46.796;9.824;2023-02-23T06:29:36;84134.61;;;0.56;48.07
36514;BME280;66331;46.796;9.824;2023-02-23T06:32:05;84135.55;;;1.09;47.42
36514;BME280;66331;46.796;9.824;2023-02-23T06:34:33;84138.06;;;1.08;47.45
36514;BME280;66331;46.796;9.824;2023-02-23T06:37:00;84140.76;;;1.43;47.44
36514;BME280;66331;46.796;9.824;2023-02-23T06:39:28;84141.96;;;1.09;47.28
36514;BME280;66331;46.796;9.824;2023-02-23T06:41:56;84143.98;;;1.19;48.09
36514;BME280;66331;46.796;9.824;2023-02-23T06:44:25;84146.11;;;0.94;47.61
36514;BME280;66331;46.796;9.824;2023-02-23T06:46:54;84148.16;;;1.03;48.32
36514;BME280;66331;46.796;9.824;2023-02-23T06:49:25;84151.24;;;0.75;48.71
36514;BME280;66331;46.796;9.824;2023-02-23T06:51:56;84149.59;;;1.22;47.97
36514;BME280;66331;46.796;9.824;2023-02-23T06:54:27;84156.14;;;0.39;49.01
36514;BME280;66331;46.796;9.824;2023-02-23T06:56:58;84158.53;;;0.71;48.91
36514;BME280;66331;46.796;9.824;2023-02-23T06:59:29;84156.01;;;1.18;48.37
36514;BME280;66331;46.796;9.824;2023-02-23T07:02:03;84154.13;;;1.42;48.32
36514;BME280;66331;46.796;9.824;2023-02-23T07:04:42;84155.96;;;1.13;48.43
36514;BME280;66331;46.796;9.824;2023-02-23T07:07:17;84161.51;;;1.13;49.20
36514;BME280;66331;46.796;9.824;2023-02-23T07:09:52;84163.54;;;0.88;49.37
36514;BME280;66331;46.796;9.824;2023-02-23T07:12:26;84163.04;;;0.71;49.78
36514;BME280;66331;46.796;9.824;2023-02-23T07:15:07;84161.85;;;1.07;48.79
36514;BME280;66331;46.796;9.824;2023-02-23T07:17:39;84162.38;;;1.09;49.08
36514;BME280;66331;46.796;9.824;2023-02-23T07:20:22;84157.99;;;1.30;47.87
36514;BME280;66331;46.796;9.824;2023-02-23T07:23:01;84157.89;;;1.13;48.66
36514;BME280;66331;46.796;9.824;2023-02-23T07:25:33;84158.17;;;0.96;48.10
36514;BME280;66331;46.796;9.824;2023-02-23T07:28:08;84159.41;;;0.64;49.91
36514;BME280;66331;46.796;9.824;2023-02-23T07:30:47;84157.98;;;1.52;48.54
36514;BME280;66331;46.796;9.824;2023-02-23T07:33:25;84160.11;;;-0.06;51.96
36514;BME280;66331;46.796;9.824;2023-02-23T07:35:57;84161.26;;;-0.63;53.84
36514;BME280;66331;46.796;9.824;2023-02-23T07:38:29;84163.82;;;-0.94;53.83
36514;BME280;66331;46.796;9.824;2023-02-23T07:41:03;84165.06;;;-0.50;54.41
36514;BME280;66331;46.796;9.824;2023-02-23T07:43:36;84163.34;;;-0.74;53.96
36514;BME280;66331;46.796;9.824;2023-02-23T07:46:13;84164.68;;;1.10;50.51
36514;BME280;66331;46.796;9.824;2023-02-23T07:48:45;84163.58;;;0.15;52.87
36514;BME280;66331;46.796;9.824;2023-02-23T07:51:17;84163.18;;;-0.59;54.78
36514;BME280;66331;46.796;9.824;2023-02-23T07:53:49;84162.08;;;-0.85;55.48
36514;BME280;66331;46.796;9.824;2023-02-23T07:56:21;84163.49;;;-1.11;55.97
36514;BME280;66331;46.796;9.824;2023-02-23T07:58:51;84161.69;;;-1.00;55.71
36514;BME280;66331;46.796;9.824;2023-02-23T08:01:24;84160.84;;;-0.41;54.66
36514;BME280;66331;46.796;9.824;2023-02-23T08:04:31;84156.65;;;-0.22;54.55
36514;BME280;66331;46.796;9.824;2023-02-23T08:07:02;84160.24;;;0.52;52.30
36514;BME280;66331;46.796;9.824;2023-02-23T08:09:34;84159.49;;;0.49;52.05
36514;BME280;66331;46.796;9.824;2023-02-23T08:12:17;84157.75;;;0.99;50.89
36514;BME280;66331;46.796;9.824;2023-02-23T08:14:48;84157.48;;;1.08;49.91
36514;BME280;66331;46.796;9.824;2023-02-23T08:17:25;84157.50;;;1.89;48.28
36514;BME280;66331;46.796;9.824;2023-02-23T08:19:57;84159.45;;;2.17;47.99
36514;BME280;66331;46.796;9.824;2023-02-23T08:22:29;84155.85;;;1.88;47.70
36514;BME280;66331;46.796;9.824;2023-02-23T08:25:06;84158.65;;;1.78;47.74
36514;BME280;66331;46.796;9.824;2023-02-23T08:27:41;84160.32;;;1.43;48.30
36514;BME280;66331;46.796;9.824;2023-02-23T08:30:14;84157.27;;;1.84;47.63
36514;BME280;66331;46.796;9.824;2023-02-23T08:32:50;84159.52;;;2.03;47.14
36514;BME280;66331;46.796;9.824;2023-02-23T08:35:24;84157.63;;;1.55;48.28
36514;BME280;66331;46.796;9.824;2023-02-23T08:38:01;84151.19;;;2.54;46.87
36514;BME280;66331;46.796;9.824;2023-02-23T08:40:33;84156.27;;;2.21;47.11
36514;BME280;66331;46.796;9.824;2023-02-23T08:43:10;84155.81;;;2.39;47.17
36514;BME280;66331;46.796;9.824;2023-02-23T08:45:42;84155.71;;;2.07;47.03
36514;BME280;66331;46.796;9.824;2023-02-23T08:48:16;84152.55;;;2.37;45.75
36514;BME280;66331;46.796;9.824;2023-02-23T08:50:47;84156.62;;;2.11;45.54
36514;BME280;66331;46.796;9.824;2023-02-23T08:53:20;84153.73;;;2.84;43.90
36514;BME280;66331;46.796;9.824;2023-02-23T08:55:56;84153.46;;;2.98;44.39
36514;BME280;66331;46.796;9.824;2023-02-23T08:58:23;84152.72;;;2.54;44.78
36514;BME280;66331;46.796;9.824;2023-02-23T09:00:50;84149.61;;;2.82;44.38
36514;BME280;66331;46.796;9.824;2023-02-23T09:03:17;84150.80;;;4.26;42.68
36514;BME280;66331;46.796;9.824;2023-02-23T09:05:45;84151.42;;;3.41;43.31
36514;BME280;66331;46.796;9.824;2023-02-23T09:08:14;84152.88;;;3.67;43.44
36514;BME280;66331;46.796;9.824;2023-02-23T09:10:43;84152.05;;;3.85;43.79
36514;BME280;66331;46.796;9.824;2023-02-23T09:13:11;84147.48;;;4.11;43.43
36514;BME280;66331;46.796;9.824;2023-02-23T09:15:39;84149.17;;;2.78;45.04
36514;BME280;66331;46.796;9.824;2023-02-23T09:18:32;84147.34;;;2.81;45.16
36514;BME280;66331;46.796;9.824;2023-02-23T09:21:02;84147.32;;;3.08;44.39
36514;BME280;66331;46.796;9.824;2023-02-23T09:23:30;84147.83;;;3.21;44.15
36514;BME280;66331;46.796;9.824;2023-02-23T09:26:03;84149.21;;;3.69;43.77
36514;BME280;66331;46.796;9.824;2023-02-23T09:28:31;84150.78;;;2.84;44.90
36514;BME280;66331;46.796;9.824;2023-02-23T09:31:23;84154.34;;;3.64;44.56
36514;BME280;66331;46.796;9.824;2023-02-23T09:33:50;84155.22;;;3.09;44.53
36514;BME280;66331;46.796;9.824;2023-02-23T09:36:20;84155.25;;;3.50;44.13
36514;BME280;66331;46.796;9.824;2023-02-23T09:38:50;84151.86;;;3.87;42.42
36514;BME280;66331;46.796;9.824;2023-02-23T09:41:35;84153.63;;;4.49;41.28
36514;BME280;66331;46.796;9.824;2023-02-23T09:44:15;84151.96;;;3.91;41.24
36514;BME280;66331;46.796;9.824;2023-02-23T09:46:50;84155.26;;;3.23;44.71
36514;BME280;66331;46.796;9.824;2023-02-23T09:50:11;84155.67;;;3.25;44.88
36514;BME280;66331;46.796;9.824;2023-02-23T09:52:43;84158.69;;;2.78;45.62
36514;BME280;66331;46.796;9.824;2023-02-23T09:55:12;84157.38;;;2.08;46.85
36514;BME280;66331;46.796;9.824;2023-02-23T09:57:42;84159.80;;;1.69;48.16
36514;BME280;66331;46.796;9.824;2023-02-23T10:00:16;84159.33;;;1.54;49.66
36514;BME280;66331;46.796;9.824;2023-02-23T10:03:01;84158.14;;;1.27;49.26
36514;BME280;66331;46.796;9.824;2023-02-23T10:05:38;84158.69;;;1.15;49.20
36514;BME280;66331;46.796;9.824;2023-02-23T10:08:10;84160.98;;;1.83;49.16
36514;BME280;66331;46.796;9.824;2023-02-23T10:10:46;84160.10;;;1.83;48.37
36514;BME280;66331;46.796;9.824;2023-02-23T10:13:24;84163.16;;;1.82;47.82
36514;BME280;66331;46.796;9.824;2023-02-23T10:15:59;84160.12;;;1.55;48.84
36514;BME280;66331;46.796;9.824;2023-02-23T10:18:38;84156.96;;;2.35;46.88
36514;BME280;66331;46.796;9.824;2023-02-23T10:21:10;84155.81;;;2.69;45.91
36514;BME280;66331;46.796;9.824;2023-02-23T10:23:44;84156.40;;;2.23;45.84
36514;BME280;66331;46.796;9.824;2023-02-23T10:26:16;84149.36;;;3.34;43.84
36514;BME280;66331;46.796;9.824;2023-02-23T10:28:44;84148.65;;;3.83;43.06
36514;BME280;66331;46.796;9.824;2023-02-23T10:31:23;84143.23;;;4.15;41.98
36514;BME280;66331;46.796;9.824;2023-02-23T10:33:55;84146.34;;;3.42;43.49
36514;BME280;66331;46.796;9.824;2023-02-23T10:36:34;84146.55;;;3.33;43.08
36514;BME280;66331;46.796;9.824;2023-02-23T10:39:05;84146.57;;;4.40;42.36
36514;BME280;66331;46.796;9.824;2023-02-23T10:41:33;84147.21;;;4.57;41.49
36514;BME280;66331;46.796;9.824;2023-02-23T10:44:00;84146.38;;;3.59;43.18
36514;BME280;66331;46.796;9.824;2023-02-23T10:46:33;84150.20;;;2.43;45.77
36514;BME280;66331;46.796;9.824;2023-02-23T10:49:02;84147.85;;;2.98;45.50
36514;BME280;66331;46.796;9.824;2023-02-23T10:51:43;84147.15;;;2.87;44.88
36514;BME280;66331;46.796;9.824;2023-02-23T10:54:45;84144.12;;;3.50;43.33
36514;BME280;66331;46.796;9.824;2023-02-23T10:57:20;84138.30;;;4.53;41.86
36514;BME280;66331;46.796;9.824;2023-02-23T11:00:02;84134.19;;;4.69;40.55
36514;BME280;66331;46.796;9.824;2023-02-23T11:02:31;84133.94;;;3.91;42.04
36514;BME280;66331;46.796;9.824;2023-02-23T11:05:00;84135.12;;;3.02;43.28
36514;BME280;66331;46.796;9.824;2023-02-23T11:07:29;84129.64;;;4.18;41.25
36514;BME280;66331;46.796;9.824;2023-02-23T11:09:57;84125.47;;;4.80;39.29
36514;BME280;66331;46.796;9.824;2023-02-23T11:12:35;84122.85;;;4.51;40.38
36514;BME280;66331;46.796;9.824;2023-02-23T11:15:24;84120.46;;;5.18;39.67
36514;BME280;66331;46.796;9.824;2023-02-23T11:17:54;84120.06;;;4.19;40.76
36514;BME280;66331;46.796;9.824;2023-02-23T11:20:29;84116.38;;;3.49;42.28
36514;BME280;66331;46.796;9.824;2023-02-23T11:22:56;84116.07;;;4.28;40.63
36514;BME280;66331;46.796;9.824;2023-02-23T11:25:27;84112.51;;;4.47;40.49
36514;BME280;66331;46.796;9.824;2023-02-23T11:27:56;84111.66;;;4.30;41.23
36514;BME280;66331;46.796;9.824;2023-02-23T11:30:29;84103.92;;;4.39;39.78
36514;BME280;66331;46.796;9.824;2023-02-23T11:33:01;84101.31;;;3.71;41.55
36514;BME280;66331;46.796;9.824;2023-02-23T11:35:30;84098.94;;;3.09;42.52
36514;BME280;66331;46.796;9.824;2023-02-23T11:37:58;84095.75;;;3.96;41.24
36514;BME280;66331;46.796;9.824;2023-02-23T11:40:27;84094.80;;;4.74;38.60
36514;BME280;66331;46.796;9.824;2023-02-23T11:42:56;84096.50;;;5.44;35.77
36514;BME280;66331;46.796;9.824;2023-02-23T11:45:25;84089.80;;;5.85;35.57
36514;BME280;66331;46.796;9.824;2023-02-23T11:47:54;84089.46;;;5.66;35.61
36514;BME280;66331;46.796;9.824;2023-02-23T11:50:26;84083.86;;;6.19;34.08
36514;BME280;66331;46.796;9.824;2023-02-23T11:53:27;84080.59;;;5.50;34.86
36514;BME280;66331;46.796;9.824;2023-02-23T11:55:58;84078.95;;;6.40;32.13
36514;BME280;66331;46.796;9.824;2023-02-23T11:58:32;84073.18;;;5.86;32.27
36514;BME280;66331;46.796;9.824;2023-02-23T12:01:03;84073.89;;;5.74;34.49
36514;BME280;66331;46.796;9.824;2023-02-23T12:03:32;84069.99;;;6.46;32.24
36514;BME280;66331;46.796;9.824;2023-02-23T12:05:59;84069.58;;;6.22;32.50
36514;BME280;66331;46.796;9.824;2023-02-23T12:08:36;84066.20;;;6.75;31.81
36514;BME280;66331;46.796;9.824;2023-02-23T12:11:09;84066.32;;;6.59;32.06
36514;BME280;66331;46.796;9.824;2023-02-23T12:13:41;84061.63;;;7.40;30.34
36514;BME280;66331;46.796;9.824;2023-02-23T12:16:14;84061.47;;;7.03;30.90
36514;BME280;66331;46.796;9.824;2023-02-23T12:18:47;84056.64;;;7.21;31.44
36514;BME280;66331;46.796;9.824;2023-02-23T12:21:29;84052.89;;;7.79;30.06
36514;BME280;66331;46.796;9.824;2023-02-23T12:24:08;84050.96;;;6.72;32.00
36514;BME280;66331;46.796;9.824;2023-02-23T12:26:43;84049.36;;;7.40;30.67
36514;BME280;66331;46.796;9.824;2023-02-23T12:29:19;84047.54;;;7.30;30.22
36514;BME280;66331;46.796;9.824;2023-02-23T12:31:53;84044.03;;;6.75;31.51
36514;BME280;66331;46.796;9.824;2023-02-23T12:34:27;84044.50;;;6.50;31.28
36514;BME280;66331;46.796;9.824;2023-02-23T12:36:59;84039.95;;;8.06;29.64
36514;BME280;66331;46.796;9.824;2023-02-23T12:39:32;84040.78;;;5.72;32.35
36514;BME280;66331;46.796;9.824;2023-02-23T12:42:06;84038.69;;;6.12;31.83
36514;BME280;66331;46.796;9.824;2023-02-23T12:44:43;84031.03;;;6.59;30.76
36514;BME280;66331;46.796;9.824;2023-02-23T12:47:23;84033.36;;;5.48;32.68
36514;BME280;66331;46.796;9.824;2023-02-23T12:49:57;84034.85;;;5.59;33.39
36514;BME280;66331;46.796;9.824;2023-02-23T12:52:30;84031.76;;;5.61;33.63
36514;BME280;66331;46.796;9.824;2023-02-23T12:54:58;84032.05;;;5.47;35.06
36514;BME280;66331;46.796;9.824;2023-02-23T12:57:38;84030.78;;;4.98;35.14
36514;BME280;66331;46.796;9.824;2023-02-23T13:00:50;84028.98;;;6.39;31.34
36514;BME280;66331;46.796;9.824;2023-02-23T13:04:31;84022.52;;;6.98;29.56
36514;BME280;66331;46.796;9.824;2023-02-23T13:07:09;84017.19;;;6.60;30.07
36514;BME280;66331;46.796;9.824;2023-02-23T13:09:44;84014.26;;;6.60;29.38
36514;BME280;66331;46.796;9.824;2023-02-23T13:12:32;84014.14;;;7.14;29.34
36514;BME280;66331;46.796;9.824;2023-02-23T13:15:17;84011.04;;;6.70;30.88
36514;BME280;66331;46.796;9.824;2023-02-23T13:17:52;84011.35;;;6.66;30.90
36514;BME280;66331;46.796;9.824;2023-02-23T13:20:28;84009.65;;;7.47;30.94
36514;BME280;66331;46.796;9.824;2023-02-23T13:23:01;84009.93;;;7.33;30.74
36514;BME280;66331;46.796;9.824;2023-02-23T13:25:39;84010.35;;;7.59;31.10
36514;BME280;66331;46.796;9.824;2023-02-23T13:28:14;84011.93;;;7.88;30.18
36514;BME280;66331;46.796;9.824;2023-02-23T13:30:43;84008.53;;;7.10;30.68
36514;BME280;66331;46.796;9.824;2023-02-23T13:33:18;84009.87;;;6.87;31.08
36514;BME280;66331;46.796;9.824;2023-02-23T13:35:47;84010.99;;;6.42;31.18
36514;BME280;66331;46.796;9.824;2023-02-23T13:38:19;84008.33;;;7.52;30.75
36514;BME280;66331;46.796;9.824;2023-02-23T13:40:51;84006.89;;;8.36;30.16
36514;BME280;66331;46.796;9.824;2023-02-23T13:43:26;84012.43;;;7.70;30.51